Time;durP1;ratioP1;P1;durP2;ratioP2;P2;SDS_P1;SDS_P2;PMS_P1;PMS_P2;Temp;Humidity;BMP_temperature;BMP_pressure;BME280_temperature;BME280_humidity;BME280_pressure;Samples;Min_cycle;Max_cycle;Signal;HPM_P1;HPM_P2
2022/01/03 00:00:46;;;;;;;4.50;2.00;;;9.50;99.90;;;;;;5110669;28;20204;-56
2022/01/03 00:03:15;;;;;;;4.47;1.50;;;9.60;99.90;;;;;;5110481;28;20229;-55
2022/01/03 00:05:45;;;;;;;3.30;1.63;;;9.60;99.90;;;;;;5111069;28;20203;-54
2022/01/03 00:08:13;;;;;;;2.70;1.87;;;9.60;99.90;;;;;;5110615;28;20192;-54
2022/01/03 00:10:42;;;;;;;6.80;2.40;;;9.60;99.90;;;;;;5111051;28;20204;-54
2022/01/03 00:13:10;;;;;;;8.47;5.83;;;9.60;99.90;;;;;;5113882;28;20742;-56
2022/01/03 00:15:38;;;;;;;4.17;2.07;;;9.60;99.90;;;;;;5114223;28;20243;-55
2022/01/03 00:18:06;;;;;;;4.03;2.67;;;9.60;99.90;;;;;;5114712;28;20204;-53
2022/01/03 00:20:34;;;;;;;10.07;7.17;;;9.70;99.90;;;;;;5131237;27;20202;-52
2022/01/03 00:23:08;;;;;;;8.83;4.87;;;9.70;99.90;;;;;;5128737;27;20256;-55
2022/01/03 00:25:38;;;;;;;12.53;7.03;;;9.60;99.90;;;;;;5113843;28;20199;-53
2022/01/03 00:28:12;;;;;;;14.07;9.00;;;9.60;99.90;;;;;;5093629;28;20208;-54
2022/01/03 00:30:41;;;;;;;6.43;3.20;;;9.70;99.90;;;;;;5093978;28;20251;-51
2022/01/03 00:33:09;;;;;;;2.57;2.00;;;9.70;99.90;;;;;;5093445;28;20242;-54
2022/01/03 00:35:40;;;;;;;5.30;2.30;;;9.70;99.90;;;;;;5093729;28;20243;-54
2022/01/03 00:38:11;;;;;;;9.20;4.77;;;9.70;99.90;;;;;;5107079;28;20192;-52
2022/01/03 00:40:40;;;;;;;6.33;3.57;;;9.70;99.90;;;;;;5118801;27;20202;-56
2022/01/03 00:43:08;;;;;;;10.77;7.67;;;9.70;99.90;;;;;;5133754;27;20755;-54
2022/01/03 00:45:36;;;;;;;10.57;6.57;;;9.60;99.90;;;;;;5120024;27;20210;-57
2022/01/03 00:48:07;;;;;;;6.47;4.03;;;9.60;99.90;;;;;;5113675;28;20311;-54
2022/01/03 00:50:36;;;;;;;5.20;3.47;;;9.60;99.90;;;;;;5114052;28;20252;-54
2022/01/03 00:53:04;;;;;;;3.10;2.40;;;9.60;99.90;;;;;;5113265;28;20211;-53
2022/01/03 00:55:34;;;;;;;5.63;3.27;;;9.60;99.90;;;;;;5113932;28;20272;-54
2022/01/03 00:58:08;;;;;;;6.03;2.70;;;9.60;99.90;;;;;;5113173;28;20675;-55
2022/01/03 01:00:40;;;;;;;4.80;3.20;;;9.60;99.90;;;;;;5095383;28;20266;-55
2022/01/03 01:03:12;;;;;;;5.70;2.50;;;9.50;99.90;;;;;;5093128;28;20282;-54
2022/01/03 01:05:42;;;;;;;5.80;2.50;;;9.50;99.90;;;;;;5093239;28;20231;-53
2022/01/03 01:08:12;;;;;;;5.60;2.67;;;9.50;99.90;;;;;;5096085;28;20777;-54
2022/01/03 01:10:42;;;;;;;4.70;2.17;;;9.40;99.90;;;;;;5112955;28;20250;-55
2022/01/03 01:13:11;;;;;;;5.73;2.60;;;9.40;99.90;;;;;;5113653;28;20203;-56
2022/01/03 01:15:41;;;;;;;4.83;2.40;;;9.40;99.90;;;;;;5113790;28;20672;-55
2022/01/03 01:18:09;;;;;;;5.43;2.80;;;9.40;99.90;;;;;;5114875;28;20200;-53
2022/01/03 01:20:40;;;;;;;5.20;2.73;;;9.40;99.90;;;;;;5115504;27;20558;-54
2022/01/03 01:23:11;;;;;;;5.40;3.20;;;9.30;99.90;;;;;;5112463;28;20204;-55
2022/01/03 01:28:27;;;;;;;7.30;3.40;;;9.40;99.90;;;;;;5099800;28;20214;-54
2022/01/03 01:31:00;;;;;;;7.63;3.53;;;9.40;99.90;;;;;;5092404;28;20207;-54
2022/01/03 01:33:32;;;;;;;7.07;3.90;;;9.40;99.90;;;;;;5092057;28;20207;-54
2022/01/03 01:36:15;;;;;;;11.37;4.03;;;9.40;99.90;;;;;;5093725;28;20219;-54
2022/01/03 01:38:50;;;;;;;11.10;4.07;;;9.40;99.90;;;;;;5099339;27;20271;-54
2022/01/03 01:41:21;;;;;;;11.70;4.07;;;9.40;99.90;;;;;;5099467;28;20199;-54
2022/01/03 01:43:50;;;;;;;9.40;3.57;;;9.40;99.90;;;;;;5111706;28;20266;-56
2022/01/03 01:46:20;;;;;;;8.17;3.60;;;9.40;99.90;;;;;;5112007;28;20723;-53
2022/01/03 01:48:50;;;;;;;10.33;3.60;;;9.40;99.90;;;;;;5112489;28;20202;-54
2022/01/03 01:51:20;;;;;;;10.73;3.50;;;9.40;99.90;;;;;;5112710;28;20205;-54
2022/01/03 01:53:50;;;;;;;10.23;3.27;;;9.40;99.90;;;;;;5127986;27;20192;-55
2022/01/03 01:56:21;;;;;;;10.20;3.47;;;9.30;99.90;;;;;;5132442;27;20711;-55
2022/01/03 01:59:10;;;;;;;7.73;3.23;;;9.30;99.90;;;;;;5130036;27;20264;-55
2022/01/03 02:01:49;;;;;;;10.03;3.40;;;9.30;99.90;;;;;;5112261;28;20208;-55
2022/01/03 02:04:33;;;;;;;6.70;2.93;;;9.20;99.90;;;;;;5112360;28;20223;-55
2022/01/03 02:07:27;;;;;;;8.67;3.20;;;9.20;99.90;;;;;;5112251;28;20227;-54
2022/01/03 02:10:06;;;;;;;9.23;3.23;;;9.30;99.90;;;;;;5112389;28;20541;-53
2022/01/03 02:12:39;;;;;;;10.10;3.30;;;9.30;99.90;;;;;;5111464;28;20242;-53
2022/01/03 02:15:11;;;;;;;15.67;3.33;;;9.30;99.90;;;;;;5112235;28;20232;-55
2022/01/03 02:17:40;;;;;;;8.00;3.00;;;9.30;99.90;;;;;;5112166;28;20280;-54
2022/01/03 02:20:12;;;;;;;8.17;3.10;;;9.30;99.90;;;;;;5113167;27;20235;-54
2022/01/03 02:22:42;;;;;;;10.27;2.87;;;9.30;99.90;;;;;;5115587;27;20224;-53
2022/01/03 02:25:12;;;;;;;13.77;3.13;;;9.30;99.90;;;;;;5120782;27;20209;-55
2022/01/03 02:27:41;;;;;;;13.07;3.63;;;9.30;99.90;;;;;;5113794;27;20680;-56
2022/01/03 02:30:11;;;;;;;9.83;3.40;;;9.30;99.90;;;;;;5112119;28;20232;-54
2022/01/03 02:32:40;;;;;;;9.20;2.83;;;9.30;99.90;;;;;;5111558;27;20581;-55
2022/01/03 02:35:10;;;;;;;7.37;2.63;;;9.30;99.90;;;;;;5131354;27;20690;-54
2022/01/03 02:37:39;;;;;;;7.50;2.83;;;9.30;99.90;;;;;;5104459;27;20291;-56
2022/01/03 02:40:13;;;;;;;8.93;2.77;;;9.30;99.90;;;;;;5091173;28;20250;-56
2022/01/03 02:42:42;;;;;;;5.53;2.20;;;9.30;99.90;;;;;;5101869;28;20206;-55
2022/01/03 02:45:14;;;;;;;8.53;2.57;;;9.20;99.90;;;;;;5111313;28;20207;-54
2022/01/03 02:47:46;;;;;;;5.67;2.30;;;9.20;99.90;;;;;;5111755;28;20224;-53
2022/01/03 02:50:17;;;;;;;5.40;1.83;;;9.20;99.90;;;;;;5111209;28;20189;-55
2022/01/03 02:52:46;;;;;;;7.90;2.10;;;9.10;99.90;;;;;;5112475;28;20684;-55
2022/01/03 02:55:15;;;;;;;7.60;2.53;;;9.10;99.90;;;;;;5132146;27;20199;-55
2022/01/03 02:57:44;;;;;;;5.90;2.20;;;9.10;99.90;;;;;;5131485;27;20269;-53
2022/01/03 03:00:16;;;;;;;6.07;2.57;;;9.00;99.90;;;;;;5103157;28;20580;-56
2022/01/03 03:02:45;;;;;;;7.87;2.77;;;9.00;99.90;;;;;;5090927;28;20730;-55
2022/01/03 03:05:15;;;;;;;9.50;2.83;;;9.00;99.90;;;;;;5090787;28;20700;-55
2022/01/03 03:07:45;;;;;;;7.63;2.10;;;9.00;99.90;;;;;;5090306;28;20220;-54
2022/01/03 03:10:14;;;;;;;10.20;2.73;;;9.10;99.90;;;;;;5111386;28;20676;-54
2022/01/03 03:12:43;;;;;;;7.10;2.63;;;9.10;99.90;;;;;;5111030;28;20677;-54
2022/01/03 03:15:13;;;;;;;7.37;2.50;;;9.10;99.90;;;;;;5112614;28;20234;-54
2022/01/03 03:17:42;;;;;;;11.27;2.90;;;9.10;99.90;;;;;;5112009;28;20219;-53
2022/01/03 03:20:12;;;;;;;9.50;3.17;;;9.10;99.90;;;;;;5114022;28;20237;-56
2022/01/03 03:22:42;;;;;;;10.07;2.90;;;9.10;99.90;;;;;;5119507;28;20239;-55
2022/01/03 03:25:12;;;;;;;8.50;3.20;;;9.10;99.90;;;;;;5111542;28;20257;-55
2022/01/03 03:27:44;;;;;;;11.10;3.30;;;9.10;99.90;;;;;;5103958;28;20306;-56
2022/01/03 03:30:16;;;;;;;12.53;3.03;;;9.00;99.90;;;;;;5114031;28;20301;-55
2022/01/03 03:32:46;;;;;;;13.20;3.27;;;9.00;99.90;;;;;;5131812;28;20227;-54
2022/01/03 03:35:14;;;;;;;8.70;3.13;;;9.00;99.90;;;;;;5093385;28;20261;-55
2022/01/03 03:37:44;;;;;;;11.30;3.43;;;9.10;99.90;;;;;;5091564;28;20638;-55
2022/01/03 03:40:13;;;;;;;10.30;3.50;;;9.00;99.90;;;;;;5091042;28;20580;-55
2022/01/03 03:42:42;;;;;;;14.30;3.63;;;9.00;99.90;;;;;;5108568;28;20208;-54
2022/01/03 03:45:11;;;;;;;19.57;3.50;;;8.90;99.90;;;;;;5110857;28;20258;-53
2022/01/03 03:47:40;;;;;;;13.80;2.77;;;8.80;99.90;;;;;;5114784;28;20267;-55
2022/01/03 03:50:09;;;;;;;17.23;3.27;;;8.80;99.90;;;;;;5114668;28;20676;-54
2022/01/03 03:52:38;;;;;;;16.57;3.60;;;8.70;99.90;;;;;;5119382;27;20195;-54
2022/01/03 03:55:09;;;;;;;12.00;3.17;;;8.70;99.90;;;;;;5135657;27;20255;-55
2022/01/03 03:57:38;;;;;;;12.90;3.23;;;8.70;99.90;;;;;;5134830;27;20634;-55
2022/01/03 04:00:08;;;;;;;13.77;3.27;;;8.70;99.90;;;;;;5122050;27;20231;-56
2022/01/03 04:02:36;;;;;;;12.83;2.83;;;8.70;99.90;;;;;;5114466;28;20240;-55
2022/01/03 04:05:06;;;;;;;12.70;3.40;;;8.60;99.90;;;;;;5114356;28;20224;-55
2022/01/03 04:07:34;;;;;;;13.37;3.50;;;8.60;99.90;;;;;;5114500;28;20224;-55
2022/01/03 04:10:02;;;;;;;11.47;3.13;;;8.60;99.90;;;;;;5114827;28;20225;-55
2022/01/03 04:12:32;;;;;;;14.73;3.20;;;8.60;99.90;;;;;;5113922;28;20265;-54
2022/01/03 04:15:00;;;;;;;13.43;3.20;;;8.60;99.90;;;;;;5106355;28;20239;-54
2022/01/03 04:17:28;;;;;;;8.20;3.10;;;8.50;99.90;;;;;;5114157;28;20224;-55
2022/01/03 04:19:56;;;;;;;10.67;2.80;;;8.50;99.90;;;;;;5111333;27;20210;-54
2022/01/03 04:22:24;;;;;;;11.70;2.83;;;8.50;99.90;;;;;;5114214;28;20714;-55
2022/01/03 04:24:52;;;;;;;12.60;3.30;;;8.60;99.90;;;;;;5114102;28;20704;-53
2022/01/03 04:27:21;;;;;;;16.57;3.03;;;8.60;99.90;;;;;;5109092;28;20260;-55
2022/01/03 04:29:50;;;;;;;11.07;2.67;;;8.60;99.90;;;;;;5097891;28;20246;-53
2022/01/03 04:32:18;;;;;;;14.53;3.20;;;8.70;99.90;;;;;;5113968;28;20201;-55
2022/01/03 04:34:46;;;;;;;11.63;3.20;;;8.60;99.90;;;;;;5114173;28;20203;-56
2022/01/03 04:37:14;;;;;;;10.87;2.93;;;8.60;99.90;;;;;;5113687;28;20238;-55
2022/01/03 04:39:43;;;;;;;8.60;2.70;;;8.60;99.90;;;;;;5114153;28;20203;-55
2022/01/03 04:42:11;;;;;;;8.77;3.00;;;8.60;99.90;;;;;;5113600;28;20225;-55
2022/01/03 04:44:39;;;;;;;9.70;3.27;;;8.60;99.90;;;;;;5114138;28;20204;-54
2022/01/03 04:47:08;;;;;;;8.50;3.37;;;8.60;99.90;;;;;;5114141;28;20615;-56
2022/01/03 04:49:36;;;;;;;12.37;3.40;;;8.60;99.90;;;;;;5114455;28;20423;-55
2022/01/03 04:52:05;;;;;;;11.30;3.20;;;8.60;99.90;;;;;;5106591;28;20202;-53
2022/01/03 04:54:33;;;;;;;11.07;3.43;;;8.60;99.90;;;;;;5113949;28;20265;-52
2022/01/03 04:57:01;;;;;;;11.77;3.13;;;8.60;99.90;;;;;;5112761;28;20310;-55
2022/01/03 04:59:29;;;;;;;9.47;3.20;;;8.60;99.90;;;;;;5105049;28;20234;-53
2022/01/03 05:02:00;;;;;;;11.10;3.00;;;8.60;99.90;;;;;;5092775;28;20216;-53
2022/01/03 05:04:30;;;;;;;9.00;3.00;;;8.50;99.90;;;;;;5100489;28;20199;-55
2022/01/03 05:06:58;;;;;;;9.90;2.97;;;8.60;99.90;;;;;;5112588;28;20227;-53
2022/01/03 05:09:27;;;;;;;18.23;3.77;;;8.60;99.90;;;;;;5113548;28;20712;-54
2022/01/03 05:11:55;;;;;;;8.10;3.00;;;8.60;99.90;;;;;;5113055;28;20208;-57
2022/01/03 05:14:23;;;;;;;11.30;3.40;;;8.60;99.90;;;;;;5113330;28;20214;-55
2022/01/03 05:16:52;;;;;;;12.90;3.43;;;8.50;99.90;;;;;;5113254;28;20219;-54
2022/01/03 05:19:20;;;;;;;11.20;3.50;;;8.50;99.90;;;;;;5120478;27;20203;-55
2022/01/03 05:21:50;;;;;;;11.13;3.33;;;8.50;99.90;;;;;;5114647;27;20204;-56
2022/01/03 05:24:20;;;;;;;8.60;3.03;;;8.50;99.90;;;;;;5092981;28;20231;-55
2022/01/03 05:26:48;;;;;;;12.47;3.60;;;8.50;99.90;;;;;;5102895;28;20603;-53
2022/01/03 05:29:17;;;;;;;11.67;3.07;;;8.50;99.90;;;;;;5112899;28;20208;-54
2022/01/03 05:31:48;;;;;;;12.73;3.60;;;8.50;99.90;;;;;;5112931;28;20205;-55
2022/01/03 05:34:17;;;;;;;9.63;3.27;;;8.50;99.90;;;;;;5112786;28;20619;-55
2022/01/03 05:36:45;;;;;;;12.10;3.30;;;8.50;99.90;;;;;;5112755;28;20220;-52
2022/01/03 05:39:15;;;;;;;11.13;3.80;;;8.50;99.90;;;;;;5112933;28;20236;-52
2022/01/03 05:41:43;;;;;;;9.47;3.17;;;8.60;99.90;;;;;;5098890;28;20613;-55
2022/01/03 05:44:11;;;;;;;12.83;3.30;;;8.60;99.90;;;;;;5092042;28;20207;-54
2022/01/03 05:46:40;;;;;;;13.27;3.40;;;8.60;99.90;;;;;;5099882;28;20247;-53
2022/01/03 05:49:10;;;;;;;11.83;3.10;;;8.60;99.90;;;;;;5112862;28;20231;-55
2022/01/03 05:51:39;;;;;;;13.33;3.40;;;8.60;99.90;;;;;;5112057;28;20215;-55
2022/01/03 05:54:07;;;;;;;12.83;3.40;;;8.60;99.90;;;;;;5130444;27;20252;-56
2022/01/03 05:56:37;;;;;;;15.70;3.00;;;8.60;99.90;;;;;;5132740;27;20254;-55
2022/01/03 05:59:07;;;;;;;11.97;3.53;;;8.60;99.90;;;;;;5127707;27;20204;-52
2022/01/03 06:01:36;;;;;;;10.20;3.00;;;8.60;99.90;;;;;;5112859;28;20215;-55
2022/01/03 06:04:15;;;;;;;11.93;3.13;;;8.60;99.90;;;;;;5112094;28;20199;-54
2022/01/03 06:06:56;;;;;;;10.30;2.77;;;8.50;99.90;;;;;;5094171;28;20765;-54
2022/01/03 06:09:24;;;;;;;9.37;3.10;;;8.50;99.90;;;;;;5104554;28;20221;-54
2022/01/03 06:11:55;;;;;;;11.23;2.83;;;8.40;99.90;;;;;;5112417;28;20220;-54
2022/01/03 06:14:23;;;;;;;13.50;3.53;;;8.30;99.90;;;;;;5112148;28;20341;-54
2022/01/03 06:16:52;;;;;;;12.00;2.83;;;8.30;99.90;;;;;;5112326;28;20215;-56
2022/01/03 06:19:21;;;;;;;14.27;3.50;;;8.30;99.90;;;;;;5111493;28;20219;-53
2022/01/03 06:21:49;;;;;;;9.03;3.00;;;8.30;99.90;;;;;;5126042;27;20196;-55
2022/01/03 06:24:19;;;;;;;16.47;3.23;;;8.30;99.90;;;;;;5111973;28;20237;-53
2022/01/03 06:26:47;;;;;;;10.60;3.10;;;8.30;99.90;;;;;;5112290;28;20227;-53
2022/01/03 06:29:18;;;;;;;12.80;3.37;;;8.40;99.90;;;;;;5111462;28;20200;-54
2022/01/03 06:31:47;;;;;;;8.33;2.70;;;8.40;99.90;;;;;;5112080;28;20211;-54
2022/01/03 06:34:16;;;;;;;12.50;3.50;;;8.50;99.90;;;;;;5112189;28;20238;-53
2022/01/03 06:36:45;;;;;;;9.90;2.83;;;8.50;99.90;;;;;;5111323;28;20235;-55
2022/01/03 06:39:13;;;;;;;12.30;3.70;;;8.50;99.90;;;;;;5112231;28;20208;-53
2022/01/03 06:41:42;;;;;;;8.37;2.73;;;8.50;99.90;;;;;;5111762;28;20276;-52
2022/01/03 06:44:10;;;;;;;10.63;3.00;;;8.40;99.90;;;;;;5111517;28;20229;-57
2022/01/03 06:46:39;;;;;;;14.10;3.07;;;8.40;99.90;;;;;;5100139;28;20309;-53
2022/01/03 06:49:08;;;;;;;12.53;3.00;;;8.30;99.90;;;;;;5097090;28;20670;-54
2022/01/03 06:51:36;;;;;;;9.77;2.80;;;8.30;99.90;;;;;;5111296;28;20211;-56
2022/01/03 06:54:07;;;;;;;8.60;2.80;;;8.40;99.90;;;;;;5111021;28;20226;-55
2022/01/03 06:56:35;;;;;;;15.57;3.00;;;8.40;99.90;;;;;;5110885;28;20590;-54
2022/01/03 06:59:04;;;;;;;13.40;3.23;;;8.30;99.90;;;;;;5107680;28;20200;-53
2022/01/03 07:01:32;;;;;;;10.57;3.00;;;8.40;99.90;;;;;;5111715;28;20242;-52
2022/01/03 07:04:02;;;;;;;9.03;3.00;;;8.40;99.90;;;;;;5103272;28;20221;-55
2022/01/03 07:06:30;;;;;;;10.93;2.77;;;8.50;99.90;;;;;;5110796;28;20258;-55
2022/01/03 07:08:58;;;;;;;9.77;3.03;;;8.50;99.90;;;;;;5111362;28;20219;-54
2022/01/03 07:11:26;;;;;;;10.77;3.40;;;8.50;99.90;;;;;;5107385;28;20204;-53
2022/01/03 07:14:05;;;;;;;9.97;2.60;;;8.50;99.90;;;;;;5110902;28;20200;-56
2022/01/03 07:19:20;;;;;;;14.83;2.93;;;8.50;99.90;;;;;;5117138;28;20213;-55
2022/01/03 07:21:48;;;;;;;12.10;2.80;;;8.50;99.90;;;;;;5113687;28;20264;-54
2022/01/03 07:24:17;;;;;;;11.17;2.70;;;8.50;99.90;;;;;;5115808;28;20207;-56
2022/01/03 07:26:45;;;;;;;11.80;2.90;;;8.60;99.90;;;;;;5114498;28;20227;-54
2022/01/03 07:29:13;;;;;;;11.13;2.70;;;8.60;99.90;;;;;;5115085;28;20675;-53
2022/01/03 07:31:41;;;;;;;6.57;2.30;;;8.50;99.90;;;;;;5115216;28;20243;-52
2022/01/03 07:34:09;;;;;;;13.03;3.20;;;8.50;99.90;;;;;;5115683;28;20232;-54
2022/01/03 07:36:38;;;;;;;12.23;3.33;;;8.50;99.90;;;;;;5113937;28;20220;-56
2022/01/03 07:39:07;;;;;;;11.03;3.07;;;8.50;99.90;;;;;;5115317;28;20208;-54
2022/01/03 07:41:35;;;;;;;8.53;2.77;;;8.60;99.90;;;;;;5114973;28;20200;-52
2022/01/03 07:44:03;;;;;;;10.27;2.90;;;8.50;99.90;;;;;;5115039;28;20264;-53
2022/01/03 07:46:31;;;;;;;11.20;2.63;;;8.60;99.90;;;;;;5115417;28;20223;-54
2022/01/03 07:48:59;;;;;;;8.73;3.00;;;8.60;99.90;;;;;;5114941;28;20207;-53
2022/01/03 07:51:28;;;;;;;14.47;3.10;;;8.70;99.90;;;;;;5114654;28;20199;-57
2022/01/03 07:53:57;;;;;;;14.53;2.57;;;8.60;99.90;;;;;;5114501;28;20204;-53
2022/01/03 07:56:25;;;;;;;9.63;3.00;;;8.60;99.90;;;;;;5115019;28;20284;-55
2022/01/03 07:58:54;;;;;;;6.70;3.20;;;8.50;99.90;;;;;;5107103;28;20208;-55
2022/01/03 08:01:22;;;;;;;11.60;3.20;;;8.50;99.90;;;;;;5098404;28;20204;-55
2022/01/03 08:03:51;;;;;;;13.07;2.90;;;8.50;99.90;;;;;;5093698;28;20239;-55
2022/01/03 08:06:39;;;;;;;11.73;3.10;;;8.60;99.90;;;;;;5094012;28;20232;-55
2022/01/03 08:09:08;;;;;;;11.80;2.93;;;8.60;99.90;;;;;;5110236;28;20716;-55
2022/01/03 08:11:36;;;;;;;11.83;3.00;;;8.70;99.90;;;;;;5110587;28;20214;-54
2022/01/03 08:14:05;;;;;;;11.27;2.87;;;8.70;99.90;;;;;;5114074;28;20243;-55
2022/01/03 08:16:33;;;;;;;15.33;3.43;;;8.70;99.90;;;;;;5114004;28;20280;-54
2022/01/03 08:19:01;;;;;;;15.17;4.00;;;8.80;99.90;;;;;;5114146;28;20227;-54
2022/01/03 08:21:29;;;;;;;11.23;2.83;;;8.70;99.90;;;;;;5132095;27;20767;-55
2022/01/03 08:23:58;;;;;;;9.13;2.37;;;8.80;99.90;;;;;;5114064;28;20235;-56
2022/01/03 08:26:27;;;;;;;10.20;2.60;;;8.80;99.90;;;;;;5113291;28;20312;-56
2022/01/03 08:28:55;;;;;;;12.50;2.87;;;8.90;99.90;;;;;;5113952;28;20707;-56
2022/01/03 08:31:23;;;;;;;10.60;2.47;;;8.90;99.90;;;;;;5114569;28;20624;-57
2022/01/03 08:33:53;;;;;;;12.97;2.77;;;8.90;99.90;;;;;;5113863;28;20207;-55
2022/01/03 08:36:21;;;;;;;10.93;2.80;;;8.90;99.90;;;;;;5113069;28;20223;-55
2022/01/03 08:38:51;;;;;;;8.60;2.67;;;8.80;99.90;;;;;;5113555;28;20204;-55
2022/01/03 08:41:19;;;;;;;10.93;2.90;;;8.80;99.90;;;;;;5114236;28;20203;-55
2022/01/03 08:43:48;;;;;;;10.87;2.80;;;8.80;99.90;;;;;;5113625;28;20207;-55
2022/01/03 08:46:16;;;;;;;14.50;2.37;;;8.80;99.90;;;;;;5114068;28;20227;-55
2022/01/03 08:48:44;;;;;;;12.23;2.83;;;8.90;99.90;;;;;;5113451;28;20216;-56
2022/01/03 08:51:13;;;;;;;11.87;2.70;;;8.80;99.90;;;;;;5113073;28;20245;-56
2022/01/03 08:53:41;;;;;;;9.90;2.87;;;8.80;99.90;;;;;;5113571;28;20203;-55
2022/01/03 08:56:09;;;;;;;11.73;2.70;;;8.80;99.90;;;;;;5134244;27;20723;-54
2022/01/03 08:58:37;;;;;;;5.77;2.50;;;8.80;99.90;;;;;;5132646;27;20199;-52
2022/01/03 09:01:06;;;;;;;12.23;2.73;;;8.90;99.90;;;;;;5097284;28;20212;-54
2022/01/03 09:03:35;;;;;;;11.03;2.73;;;8.80;99.90;;;;;;5108749;28;20241;-55
2022/01/03 09:06:04;;;;;;;14.07;2.93;;;8.90;99.90;;;;;;5112552;28;20230;-55
2022/01/03 09:08:33;;;;;;;12.17;2.97;;;8.90;99.90;;;;;;5125230;27;20310;-54
2022/01/03 09:11:01;;;;;;;10.73;3.03;;;8.90;99.90;;;;;;5113025;28;20211;-56
2022/01/03 09:13:29;;;;;;;10.43;2.70;;;8.90;99.90;;;;;;5112596;28;20583;-53
2022/01/03 09:15:57;;;;;;;12.73;3.43;;;9.00;99.90;;;;;;5112939;28;20676;-56
2022/01/03 09:18:27;;;;;;;9.33;2.27;;;9.00;99.90;;;;;;5105935;28;20245;-55
2022/01/03 09:20:55;;;;;;;12.20;3.13;;;9.10;99.90;;;;;;5109346;28;20215;-55
2022/01/03 09:23:27;;;;;;;9.20;2.83;;;9.00;99.90;;;;;;5112906;28;20257;-55
2022/01/03 09:28:52;;;;;;;11.50;2.87;;;9.10;99.90;;;;;;5092129;28;20208;-53
2022/01/03 09:31:24;;;;;;;8.40;2.53;;;9.20;99.90;;;;;;5091563;28;20583;-53
2022/01/03 09:33:55;;;;;;;6.43;2.17;;;9.30;99.90;;;;;;5111284;28;20203;-54
2022/01/03 09:36:23;;;;;;;7.00;2.00;;;9.40;99.90;;;;;;5106566;28;20638;-54
2022/01/03 09:38:52;;;;;;;10.07;2.50;;;9.40;99.90;;;;;;5091806;28;20205;-54
2022/01/03 09:41:23;;;;;;;7.97;2.40;;;9.50;99.90;;;;;;5091829;28;20246;-52
2022/01/03 09:43:53;;;;;;;10.00;2.13;;;9.50;99.90;;;;;;5091823;28;20196;-53
2022/01/03 09:46:24;;;;;;;8.30;2.60;;;9.60;99.90;;;;;;5103651;28;20743;-55
2022/01/03 09:48:55;;;;;;;11.77;2.73;;;9.70;99.90;;;;;;5112574;28;20351;-54
2022/01/03 09:51:27;;;;;;;11.03;2.80;;;9.70;99.90;;;;;;5111593;28;20200;-52
2022/01/03 09:53:57;;;;;;;8.37;2.67;;;9.70;99.90;;;;;;5112248;28;20228;-53
2022/01/03 09:56:26;;;;;;;10.03;2.40;;;9.80;99.90;;;;;;5112037;28;20627;-56
2022/01/03 09:58:54;;;;;;;11.03;2.43;;;10.00;99.90;;;;;;5111954;28;20200;-53
2022/01/03 10:01:23;;;;;;;7.30;2.33;;;10.10;99.90;;;;;;5112227;28;20261;-54
2022/01/03 10:03:51;;;;;;;7.47;2.23;;;10.00;99.90;;;;;;5122152;27;20209;-54
2022/01/03 10:06:23;;;;;;;7.00;2.53;;;9.90;99.90;;;;;;5132226;27;20889;-50
2022/01/03 10:08:52;;;;;;;12.23;2.97;;;9.90;99.90;;;;;;5102041;27;20243;-55
2022/01/03 10:11:21;;;;;;;11.13;2.40;;;9.80;99.90;;;;;;5092887;28;20215;-53
2022/01/03 10:13:51;;;;;;;5.77;2.00;;;9.70;99.90;;;;;;5103580;28;20206;-53
2022/01/03 10:16:20;;;;;;;6.70;1.80;;;9.70;99.90;;;;;;5108402;28;20277;-55
2022/01/03 10:19:08;;;;;;;6.20;2.37;;;9.70;99.90;;;;;;5118723;27;20219;-54
2022/01/03 10:21:40;;;;;;;8.50;2.40;;;9.70;99.90;;;;;;5120055;27;20234;-51
2022/01/03 10:24:10;;;;;;;8.73;2.90;;;9.60;99.90;;;;;;5091316;28;20206;-55
2022/01/03 10:26:39;;;;;;;6.87;2.93;;;9.60;99.90;;;;;;5090488;28;20230;-51
2022/01/03 10:29:15;;;;;;;8.97;2.60;;;9.60;99.90;;;;;;5102138;28;20284;-54
2022/01/03 10:31:46;;;;;;;7.97;2.73;;;9.60;99.90;;;;;;5111334;28;20777;-56
2022/01/03 10:34:16;;;;;;;9.03;2.53;;;9.70;99.90;;;;;;5111732;28;20192;-53
2022/01/03 10:36:47;;;;;;;6.40;2.30;;;9.70;99.90;;;;;;5110540;28;20785;-53
2022/01/03 10:39:18;;;;;;;8.97;2.87;;;9.80;99.90;;;;;;5111621;28;20203;-51
2022/01/03 10:41:48;;;;;;;8.77;2.30;;;9.80;99.90;;;;;;5111628;28;20204;-53
2022/01/03 10:44:30;;;;;;;6.50;2.10;;;9.90;99.90;;;;;;5111850;28;20231;-54
2022/01/03 10:47:01;;;;;;;10.20;2.40;;;9.80;99.90;;;;;;5111835;28;20309;-53
2022/01/03 10:49:32;;;;;;;8.90;2.90;;;9.90;99.90;;;;;;5111479;28;20275;-60
2022/01/03 10:52:16;;;;;;;9.10;2.57;;;10.00;99.90;;;;;;5110996;28;20234;-52
2022/01/03 10:55:05;;;;;;;10.07;2.90;;;10.10;99.90;;;;;;5091157;28;20195;-59
2022/01/03 10:57:48;;;;;;;10.20;2.60;;;10.20;99.90;;;;;;5103910;28;20226;-54
2022/01/03 11:00:17;;;;;;;9.90;3.37;;;10.20;99.90;;;;;;5120273;28;20203;-52
2022/01/03 11:03:06;;;;;;;11.73;3.43;;;10.20;99.90;;;;;;5131925;28;20207;-53
2022/01/03 11:05:38;;;;;;;8.37;2.73;;;10.20;99.90;;;;;;5090118;28;20211;-53
2022/01/03 11:10:54;;;;;;;9.53;2.93;;;10.40;99.90;;;;;;5098301;28;20237;-54
2022/01/03 11:13:23;;;;;;;11.33;3.50;;;10.40;99.90;;;;;;5110954;28;20207;-52
2022/01/03 11:15:53;;;;;;;9.80;4.03;;;10.30;99.90;;;;;;5111040;28;20259;-55
2022/01/03 11:18:24;;;;;;;11.37;2.77;;;10.40;99.90;;;;;;5101496;28;20222;-55
2022/01/03 11:21:05;;;;;;;12.97;4.53;;;10.60;99.90;;;;;;5123850;28;20200;-54
2022/01/03 11:23:35;;;;;;;10.23;3.13;;;10.60;99.90;;;;;;5110832;28;20207;-53
2022/01/03 11:26:08;;;;;;;12.97;2.77;;;10.60;99.90;;;;;;5094186;28;20659;-55
2022/01/03 11:28:36;;;;;;;14.07;3.50;;;10.60;99.90;;;;;;5089968;28;20255;-55
2022/01/03 11:31:05;;;;;;;11.57;3.20;;;10.60;99.90;;;;;;5090720;28;20204;-52
2022/01/03 11:33:35;;;;;;;11.93;3.10;;;10.60;99.90;;;;;;5090367;28;20234;-54
2022/01/03 11:36:25;;;;;;;9.57;3.13;;;10.60;99.90;;;;;;5099414;28;20223;-54
2022/01/03 11:38:56;;;;;;;9.17;2.67;;;10.50;99.90;;;;;;5110155;28;20564;-54
2022/01/03 11:41:24;;;;;;;12.57;2.80;;;10.40;99.90;;;;;;5110689;28;20607;-57
2022/01/03 11:43:54;;;;;;;11.63;2.50;;;10.40;99.90;;;;;;5110264;28;20207;-55
2022/01/03 11:46:23;;;;;;;10.97;3.20;;;10.30;99.90;;;;;;5111096;28;20227;-56
2022/01/03 11:48:51;;;;;;;15.87;3.27;;;10.20;99.90;;;;;;5111391;28;20212;-56
2022/01/03 11:51:22;;;;;;;7.57;2.63;;;10.30;99.90;;;;;;5109504;28;20196;-54
2022/01/03 11:53:51;;;;;;;10.73;2.80;;;10.20;99.90;;;;;;5112267;28;20257;-55
2022/01/03 11:56:23;;;;;;;10.17;2.73;;;10.30;99.90;;;;;;5120792;28;20257;-54
2022/01/03 11:59:00;;;;;;;13.03;2.60;;;10.30;99.90;;;;;;5128204;28;20365;-54
2022/01/03 12:04:26;;;;;;;10.63;2.80;;;10.40;99.90;;;;;;5110830;28;20667;-55
2022/01/03 12:07:05;;;;;;;9.13;3.20;;;10.50;99.90;;;;;;5110307;28;20722;-55
2022/01/03 12:09:34;;;;;;;11.47;2.90;;;10.40;99.90;;;;;;5114814;28;20246;-55
2022/01/03 12:12:05;;;;;;;10.30;2.93;;;10.40;99.90;;;;;;5113412;28;20225;-55
2022/01/03 12:14:44;;;;;;;8.73;2.80;;;10.40;99.90;;;;;;5124456;27;20250;-55
2022/01/03 12:17:13;;;;;;;9.57;2.60;;;10.40;99.90;;;;;;5133120;27;20644;-55
2022/01/03 12:19:43;;;;;;;10.70;2.90;;;10.40;99.90;;;;;;5135512;27;20198;-55
2022/01/03 12:22:17;;;;;;;10.47;2.70;;;10.40;99.90;;;;;;5116277;27;20200;-58
2022/01/03 12:24:57;;;;;;;13.33;2.90;;;10.40;99.90;;;;;;5114397;28;20273;-54
2022/01/03 12:27:39;;;;;;;12.33;3.23;;;10.30;99.90;;;;;;5093407;28;20263;-54
2022/01/03 12:30:16;;;;;;;9.43;2.60;;;10.30;99.90;;;;;;5093874;28;20243;-54
2022/01/03 12:33:11;;;;;;;10.53;3.37;;;10.30;99.90;;;;;;5093726;28;20208;-54
2022/01/03 12:35:41;;;;;;;9.33;3.17;;;10.30;99.90;;;;;;5109858;28;20231;-56
2022/01/03 12:38:17;;;;;;;12.20;3.10;;;10.30;99.90;;;;;;5096857;28;20208;-55
2022/01/03 12:40:57;;;;;;;11.33;3.20;;;10.30;99.90;;;;;;5093328;28;20207;-54
2022/01/03 12:43:47;;;;;;;8.93;2.63;;;10.20;99.90;;;;;;5093005;28;20208;-55
2022/01/03 12:46:21;;;;;;;14.70;3.10;;;10.20;99.90;;;;;;5093069;28;20236;-54
2022/01/03 12:48:55;;;;;;;7.60;2.93;;;10.30;99.90;;;;;;5094056;28;20207;-54
2022/01/03 12:51:34;;;;;;;11.40;3.47;;;10.20;99.90;;;;;;5098399;28;20220;-54
2022/01/03 12:54:07;;;;;;;11.20;3.03;;;10.20;99.90;;;;;;5113902;28;20199;-54
2022/01/03 12:56:35;;;;;;;8.57;2.37;;;10.20;99.90;;;;;;5112327;28;20273;-54
2022/01/03 12:59:15;;;;;;;11.43;2.47;;;10.10;99.90;;;;;;5108845;28;20208;-54
2022/01/03 13:01:44;;;;;;;4.87;1.90;;;10.00;99.90;;;;;;5092983;28;20207;-55
2022/01/03 13:04:26;;;;;;;6.53;2.30;;;10.00;99.90;;;;;;5097107;28;20833;-54
2022/01/03 13:07:04;;;;;;;7.33;2.40;;;9.80;99.90;;;;;;5102952;28;20603;-54
2022/01/03 13:09:32;;;;;;;7.13;2.23;;;9.70;99.90;;;;;;5127372;27;20203;-54
2022/01/03 13:12:05;;;;;;;6.60;2.50;;;9.70;99.90;;;;;;5132734;27;20235;-55
2022/01/03 13:14:35;;;;;;;4.83;2.00;;;9.70;99.90;;;;;;5133078;27;20678;-54
2022/01/03 13:17:04;;;;;;;5.50;2.43;;;9.60;99.90;;;;;;5133037;27;20354;-54
2022/01/03 13:19:34;;;;;;;5.27;2.20;;;9.50;99.90;;;;;;5099811;28;20820;-53
2022/01/03 13:22:05;;;;;;;5.97;2.23;;;9.50;99.90;;;;;;5112640;28;20203;-54